Danbury, CT (06814)

7:29 AM EST on February 25, 2017 (GMT -0500)
Wooster Village | | Change Station
Active Advisory: Special Statement

Elev 472 ft 41.38 °N, 73.46 °W | Updated 9 minutes ago

Overcast
Overcast
55.4 °F
Feels Like 55.4 °F
N
1.7
Wind Variable Wind from NE

Today
High -- | Low -- °F
--% Chance of Precip.
Yesterday
High -- | Low -- °F
Precip. -- in
Pressure 29.78 in
Visibility 8.0 miles
Clouds Overcast 600 ft
Dew Point 55 °F
Humidity 98%
Rainfall 0.10 in
Snow Depth Not available.
6:34 AM 5:40 PM
Waning Crescent, 1% visible
METAR KDXR 251153Z AUTO 16006KT 8SM OVC006 13/12 A2979 RMK AO2 SLP085 T01280122 10150 20128 58009
Pressure 29.78 in
Visibility 8.0 miles
Clouds Overcast 600 ft
Dew Point 55 °F
Humidity 98%
Rainfall 0.10 in
Snow Depth Not available.
6:34 AM 5:40 PM
Waning Crescent, 1% visible
METAR KDXR 251153Z AUTO 16006KT 8SM OVC006 13/12 A2979 RMK AO2 SLP085 T01280122 10150 20128 58009

Get Your Daily Forecast Email!

Thanks for signing up!

Be on the lookout for a verification email in your inbox.

You'll start receiving the daily forecast at 8 AM.

×

10-Day Weather Forecast

Almanac

Astronomy

Feb. 25, 2017 Rise Set
Actual Time
Civil Twilight
Nautical Twilight
Astronomical Twilight
Moon
Length of Visible Light
Length of Day
Tomorrow will be .
, % of the Moon is Illuminated

Today's Extremes

State Highs State Lows

Community

WunderPhotos

Upload Photos

1,962,540 photos uploaded!

WunderBlog® & News

Nearby

Air Quality

  Air Quality AQ Index Pollutant
Not available.

Snow Depth

Station Depth Elevation

Earthquake Activity

City Distance Mag. Time & Date
Minimum magnitude displayed is 2.5.

Coastal Water Temperatures

Place Temperature

Stations

Nearby Weather Stations

Station Location Temp. Windchill Dew Point Humidity Wind Precip. Elev Updated Type
                   

Watches & Warnings

Special Statement
Issued: 5:45 AM EST Feb. 25, 2017 – National Weather Service

Patchy dense fog will continue to restrict visibilities to one
quarter of a mile or less at times this morning, especially south
of Interstate 84.

Motorists should be alert while driving into rapidly reduced
visibilities. Remember to slow down, use your low beam
headlights, and leave plenty of distance ahead of you in case a
sudden stop is needed.



545 am EST Sat Feb 25 2017

Patchy dense fog will continue to restrict visibilities to one
quarter of a mile or less at times this morning, especially south
of Interstate 84.

Motorists should be alert while driving into rapidly reduced
visibilities. Remember to slow down, use your low beam
headlights, and leave plenty of distance ahead of you in case a
sudden stop is needed.